createdAt,value
2022-09-23T00:01:25.246Z,101410.03
2022-09-23T00:06:28.161Z,101405.56
2022-09-23T00:11:29.845Z,101406.38
2022-09-23T00:16:34.167Z,101398.44
2022-09-23T00:21:35.999Z,101390.47
2022-09-23T00:26:37.610Z,101391.16
2022-09-23T00:31:39.220Z,101385.13
2022-09-23T00:36:40.939Z,101388.44
2022-09-23T00:41:42.597Z,101391.78
2022-09-23T00:46:44.215Z,101382.91
2022-09-23T00:51:50.722Z,101377.56
2022-09-23T00:56:52.347Z,101368.81
2022-09-23T01:01:54.836Z,101367.91
2022-09-23T01:06:56.472Z,101373.13
2022-09-23T01:12:17.475Z,101359.13
2022-09-23T01:17:36.626Z,101357.31
2022-09-23T01:22:53.140Z,101354.75
2022-09-23T01:28:03.829Z,101340.78
2022-09-23T01:33:27.575Z,101340.69
2022-09-23T01:38:29.011Z,101337.16
2022-09-23T01:43:30.823Z,101334.38
2022-09-23T01:48:45.656Z,101328.25
2022-09-23T01:54:04.047Z,101323.56
2022-09-23T01:59:11.513Z,101322.59
2022-09-23T02:04:18.481Z,101319.03
2022-09-23T02:09:24.822Z,101316.28
2022-09-23T02:14:36.314Z,101319.72
2022-09-23T02:19:48.551Z,101316.25
2022-09-23T02:24:50.161Z,101316.28
2022-09-23T02:30:09.508Z,101303.31
2022-09-23T02:35:32.825Z,101300.72
2022-09-23T02:41:04.664Z,101296.38
2022-09-23T02:46:06.434Z,101292.88
2022-09-23T02:51:08.510Z,101286.81
2022-09-23T02:56:15.076Z,101281.53
2022-09-23T03:01:54.362Z,101278.81
2022-09-23T03:07:08.063Z,101275.25
2022-09-23T03:12:20.172Z,101269.19
2022-09-23T03:17:34.815Z,101269.19
2022-09-23T03:22:47.076Z,101265.75
2022-09-23T03:27:48.726Z,101257.97
2022-09-23T03:32:51.294Z,101262.31
2022-09-23T03:37:55.330Z,101259.78
2022-09-23T03:42:57.102Z,101254.59
2022-09-23T03:47:58.701Z,101246.69
2022-09-23T03:53:00.830Z,101243.19
2022-09-23T03:58:04.750Z,101241.41
2022-09-23T04:03:11.460Z,101242.03
2022-09-23T04:08:13.403Z,101234.16
2022-09-23T04:13:14.977Z,101225.38
2022-09-23T04:18:16.578Z,101220.13
2022-09-23T04:23:18.195Z,101206.97
2022-09-23T04:28:20.352Z,101214.56
2022-09-23T04:33:21.967Z,101216.97
2022-09-23T04:38:23.579Z,101209.06
2022-09-23T04:43:25.184Z,101211.56
2022-09-23T04:48:27.169Z,101212.31
2022-09-23T04:53:29.257Z,101211.34
2022-09-23T04:58:30.928Z,101210.34
2022-09-23T05:03:35.601Z,101208.50
2022-09-23T05:08:37.207Z,101205.03
2022-09-23T05:13:38.828Z,101204.16
2022-09-23T05:18:42.608Z,101201.56
2022-09-23T05:23:47.912Z,101204.09
2022-09-23T05:28:49.670Z,101209.28
2022-09-23T05:33:52.837Z,101199.72
2022-09-23T05:38:56.456Z,101203.22
2022-09-23T05:43:59.627Z,101199.72
2022-09-23T05:49:03.517Z,101192.97
2022-09-23T05:54:05.658Z,101198.28
2022-09-23T05:59:07.590Z,101198.53
2022-09-23T06:04:11.794Z,101201.31
2022-09-23T06:09:14.297Z,101198.97
2022-09-23T06:14:16.045Z,101199.22
2022-09-23T06:19:17.680Z,101210.81
2022-09-23T06:24:22.954Z,101213.00
2022-09-23T06:29:26.512Z,101209.22
2022-09-23T06:34:28.223Z,101208.81
2022-09-23T06:39:30.042Z,101203.00
2022-09-23T06:44:31.666Z,101199.91
2022-09-23T06:49:33.873Z,101198.47
2022-09-23T06:54:35.705Z,101200.53
2022-09-23T06:59:37.376Z,101196.53
2022-09-23T07:04:38.989Z,101200.28
2022-09-23T07:09:40.632Z,101189.25
2022-09-23T07:14:42.257Z,101192.97
2022-09-23T07:19:44.001Z,101191.44
2022-09-23T07:24:46.556Z,101194.19
2022-09-23T07:29:49.104Z,101194.31
2022-09-23T07:34:51.123Z,101186.63
2022-09-23T07:39:52.780Z,101192.13
2022-09-23T07:44:56.727Z,101191.38
2022-09-23T07:49:58.331Z,101186.28
2022-09-23T07:54:59.961Z,101186.50
2022-09-23T08:00:02.360Z,101180.59
2022-09-23T08:05:13.339Z,101177.34
2022-09-23T08:10:19.057Z,101184.56
2022-09-23T08:15:20.665Z,101189.03
2022-09-23T08:20:43.681Z,101184.00
2022-09-23T08:25:48.228Z,101181.59
2022-09-23T08:30:49.895Z,101190.47
2022-09-23T08:35:51.914Z,101180.16
2022-09-23T08:40:55.607Z,101173.34
2022-09-23T08:45:58.710Z,101170.06
2022-09-23T08:51:05.483Z,101170.25
2022-09-23T08:56:17.234Z,101164.44
2022-09-23T09:01:44.231Z,101154.19
2022-09-23T09:06:52.968Z,101153.47
2022-09-23T09:12:43.824Z,101147.47
2022-09-23T09:18:21.331Z,101153.72
2022-09-23T09:23:24.652Z,101155.50
2022-09-23T09:28:48.364Z,101147.69
2022-09-23T09:33:57.800Z,101139.81
2022-09-23T09:38:59.578Z,101134.56
2022-09-23T09:44:03.431Z,101134.56
2022-09-23T09:49:23.072Z,101124.91
2022-09-23T09:54:25.905Z,101116.97
2022-09-23T09:59:28.015Z,101116.94
2022-09-23T10:04:33.832Z,101116.03
2022-09-23T10:09:36.638Z,101101.00
2022-09-23T10:14:38.281Z,101108.00
2022-09-23T10:19:39.906Z,101100.88
2022-09-23T10:24:42.198Z,101106.09
2022-09-23T10:29:46.673Z,101088.28
2022-09-23T10:35:03.302Z,101094.16
2022-09-23T10:40:36.823Z,101095.78
2022-09-23T10:46:00.322Z,101085.03
2022-09-23T10:51:05.614Z,101075.94
2022-09-23T10:56:31.940Z,101076.69
2022-09-23T11:01:44.000Z,101071.47
2022-09-23T11:07:14.035Z,101060.69
2022-09-23T11:12:44.651Z,101061.19
2022-09-23T11:17:56.782Z,101039.75
2022-09-23T11:23:40.358Z,101040.56
2022-09-23T11:28:55.638Z,101018.34
2022-09-23T11:34:34.320Z,101025.00
2022-09-23T11:39:39.740Z,101008.16
2022-09-23T11:44:43.762Z,101007.78
2022-09-23T11:50:00.227Z,101008.78
2022-09-23T11:55:23.037Z,101001.72
2022-09-23T12:00:26.601Z,100996.25
2022-09-23T12:05:31.543Z,100993.09
2022-09-23T12:10:51.636Z,100998.69
2022-09-23T12:16:03.569Z,100975.91
2022-09-23T12:21:46.326Z,100970.53
2022-09-23T12:26:53.495Z,100963.84
2022-09-23T12:31:55.567Z,100962.63
2022-09-23T12:37:03.982Z,100969.22
2022-09-23T12:42:10.780Z,100966.50
2022-09-23T12:47:15.261Z,100964.94
2022-09-23T12:52:16.697Z,100963.09
2022-09-23T12:57:33.543Z,100956.09
2022-09-23T13:02:37.297Z,100952.44
2022-09-23T13:07:42.692Z,100940.06
2022-09-23T13:12:44.349Z,100945.00
2022-09-23T13:17:45.950Z,100939.34
2022-09-23T13:22:51.748Z,100932.53
2022-09-23T13:27:55.438Z,100925.59
2022-09-23T13:33:14.359Z,100924.06
2022-09-23T13:38:26.099Z,100917.38
2022-09-23T13:43:41.493Z,100913.94
2022-09-23T13:48:44.266Z,100908.63
2022-09-23T13:53:51.750Z,100894.31
2022-09-23T13:58:53.528Z,100895.34
2022-09-23T14:03:55.159Z,100891.97
2022-09-23T14:08:56.836Z,100887.66
2022-09-23T14:13:58.446Z,100877.88
2022-09-23T14:19:00.076Z,100870.00
2022-09-23T14:24:20.847Z,100867.59
2022-09-23T14:29:26.972Z,100873.84
2022-09-23T14:34:41.576Z,100873.91
2022-09-23T14:39:43.179Z,100872.34
2022-09-23T14:44:44.826Z,100868.34
2022-09-23T14:50:09.652Z,100870.94
2022-09-23T14:55:15.895Z,100869.22
2022-09-23T15:00:18.927Z,100865.00
2022-09-23T15:05:22.138Z,100873.06
2022-09-23T15:10:28.653Z,100864.50
2022-09-23T15:15:30.263Z,100862.94
2022-09-23T15:20:31.974Z,100846.44
2022-09-23T15:25:35.527Z,100842.22
2022-09-23T15:30:38.114Z,100847.59
2022-09-23T15:35:40.870Z,100851.19
2022-09-23T15:40:42.531Z,100846.03
2022-09-23T15:45:55.806Z,100843.53
2022-09-23T15:50:58.422Z,100845.38
2022-09-23T15:56:00.431Z,100844.63
2022-09-23T16:01:02.149Z,100829.81
2022-09-23T16:06:06.133Z,100831.78
2022-09-23T16:11:24.059Z,100828.47
2022-09-23T16:16:27.702Z,100831.16
2022-09-23T16:21:29.463Z,100821.56
2022-09-23T16:26:32.737Z,100828.78
2022-09-23T16:31:36.112Z,100818.34
2022-09-23T16:36:40.376Z,100824.63
2022-09-23T16:41:43.383Z,100820.44
2022-09-23T16:46:45.006Z,100817.13
2022-09-23T16:51:46.641Z,100816.44
2022-09-23T16:56:48.259Z,100812.25
2022-09-23T17:02:08.224Z,100803.66
2022-09-23T17:07:10.168Z,100810.94
2022-09-23T17:12:15.728Z,100804.06
2022-09-23T17:17:17.567Z,100806.91
2022-09-23T17:22:19.169Z,100802.69
2022-09-23T17:27:21.354Z,100797.63
2022-09-23T17:32:22.946Z,100802.97
2022-09-23T17:37:24.566Z,100806.56
2022-09-23T17:42:26.182Z,100799.59
2022-09-23T17:47:27.784Z,100799.69
2022-09-23T17:52:29.383Z,100797.16
2022-09-23T17:57:30.991Z,100806.91
2022-09-23T18:02:32.773Z,100799.16
2022-09-23T18:07:34.417Z,100802.75
2022-09-23T18:12:36.009Z,100802.84
2022-09-23T18:17:37.627Z,100805.56
2022-09-23T18:22:39.226Z,100806.53
2022-09-23T18:27:40.930Z,100800.47
2022-09-23T18:32:43.022Z,100812.78
2022-09-23T18:37:44.649Z,100801.50
2022-09-23T18:42:46.376Z,100805.97
2022-09-23T18:48:06.535Z,100803.34
2022-09-23T18:53:08.403Z,100799.00
2022-09-23T18:58:12.018Z,100800.78
2022-09-23T19:03:13.638Z,100801.69
2022-09-23T19:08:15.240Z,100809.56
2022-09-23T19:13:16.841Z,100814.00
2022-09-23T19:18:20.252Z,100804.38
2022-09-23T19:23:21.856Z,100808.81
2022-09-23T19:28:23.582Z,100812.34
2022-09-23T19:33:25.189Z,100808.88
2022-09-23T19:38:27.996Z,100811.50
2022-09-23T19:43:29.649Z,100798.44
2022-09-23T19:48:31.283Z,100798.44
2022-09-23T19:53:32.902Z,100793.19
2022-09-23T19:58:35.436Z,100792.38
2022-09-23T20:03:37.051Z,100789.75
2022-09-23T20:08:38.723Z,100784.56
2022-09-23T20:13:40.539Z,100784.59
2022-09-23T20:18:42.457Z,100776.72
2022-09-23T20:23:44.057Z,100766.25
2022-09-23T20:28:45.703Z,100768.91
2022-09-23T20:33:56.139Z,100754.94
2022-09-23T20:38:59.626Z,100754.09
2022-09-23T20:44:02.233Z,100741.88
2022-09-23T20:49:03.844Z,100742.78
2022-09-23T20:54:05.454Z,100746.31
2022-09-23T20:59:07.110Z,100737.56
2022-09-23T21:04:09.635Z,100736.75
2022-09-23T21:09:11.403Z,100739.34
2022-09-23T21:14:13.035Z,100738.50
2022-09-23T21:19:14.717Z,100735.88
2022-09-23T21:24:45.656Z,100740.22
2022-09-23T21:29:39.153Z,100740.22
2022-09-23T21:34:40.750Z,100737.63
2022-09-23T21:40:02.332Z,100742.88
2022-09-23T21:45:05.107Z,100736.81
2022-09-23T21:50:07.289Z,100732.47
2022-09-23T21:55:08.912Z,100731.63
2022-09-23T22:00:11.353Z,100731.66
2022-09-23T22:05:12.968Z,100722.03
2022-09-23T22:10:14.590Z,100734.28
2022-09-23T22:15:20.302Z,100724.69
2022-09-23T22:20:22.562Z,100724.69
2022-09-23T22:25:24.373Z,100725.56
2022-09-23T22:30:44.339Z,100722.97
2022-09-23T22:35:46.377Z,100726.44
2022-09-23T22:40:47.996Z,100724.72
2022-09-23T22:45:50.839Z,100717.72
2022-09-23T22:50:52.459Z,100711.59
2022-09-23T22:56:00.048Z,100699.38
2022-09-23T23:01:02.419Z,100705.50
2022-09-23T23:06:04.127Z,100699.38
2022-09-23T23:11:10.049Z,100696.78
2022-09-23T23:16:12.309Z,100702.91
2022-09-23T23:21:15.770Z,100702.03
2022-09-23T23:26:21.854Z,100696.78
2022-09-23T23:31:25.382Z,100689.81
2022-09-23T23:36:27.049Z,100693.28
2022-09-23T23:41:28.711Z,100695.03
2022-09-23T23:46:30.852Z,100692.41
2022-09-23T23:51:32.489Z,100688.94
2022-09-23T23:56:34.115Z,100691.56
